createdAt,value
2023-03-22T00:01:34.925Z,100316.44
2023-03-22T00:04:01.816Z,100310.25
2023-03-22T00:06:28.683Z,100319.53
2023-03-22T00:08:55.567Z,100320.38
2023-03-22T00:11:27.325Z,100303.72
2023-03-22T00:13:55.100Z,100302.63
2023-03-22T00:16:22.184Z,100305.09
2023-03-22T00:18:49.039Z,100314.13
2023-03-22T00:21:16.829Z,100310.59
2023-03-22T00:23:44.804Z,100315.06
2023-03-22T00:26:13.255Z,100304.44
2023-03-22T00:28:40.996Z,100297.22
2023-03-22T00:31:08.088Z,100299.00
2023-03-22T00:33:35.838Z,100300.28
2023-03-22T00:36:05.476Z,100291.56
2023-03-22T00:38:44.836Z,100290.06
2023-03-22T00:41:14.908Z,100293.59
2023-03-22T00:43:45.325Z,100289.34
2023-03-22T00:46:12.841Z,100295.50
2023-03-22T00:48:40.014Z,100293.91
2023-03-22T00:51:07.853Z,100296.56
2023-03-22T00:53:37.088Z,100297.59
2023-03-22T00:56:07.750Z,100287.75
2023-03-22T00:58:45.298Z,100285.28
2023-03-22T01:01:14.287Z,100293.25
2023-03-22T01:03:45.917Z,100286.44
2023-03-22T01:06:15.592Z,100290.16
2023-03-22T01:08:42.524Z,100294.84
2023-03-22T01:11:09.641Z,100286.13
2023-03-22T01:13:41.967Z,100280.06
2023-03-22T01:16:10.228Z,100280.16
2023-03-22T01:18:37.185Z,100278.25
2023-03-22T01:21:04.259Z,100273.78
2023-03-22T01:23:32.022Z,100283.34
2023-03-22T01:26:01.061Z,100278.03
2023-03-22T01:28:28.776Z,100276.25
2023-03-22T01:30:56.202Z,100270.28
2023-03-22T01:33:23.154Z,100269.97
2023-03-22T01:35:51.226Z,100266.59
2023-03-22T01:41:07.616Z,100260.53
2023-03-22T01:43:38.174Z,100250.00
2023-03-22T01:46:05.313Z,100239.28
2023-03-22T01:48:50.345Z,100240.44
2023-03-22T01:51:20.880Z,100236.00
2023-03-22T01:54:21.015Z,100237.91
2023-03-22T01:56:48.986Z,100235.25
2023-03-22T01:59:24.340Z,100242.47
2023-03-22T02:02:15.104Z,100238.97
2023-03-22T02:04:42.159Z,100237.25
2023-03-22T02:07:15.746Z,100246.69
2023-03-22T02:09:46.683Z,100234.50
2023-03-22T02:12:39.595Z,100240.78
2023-03-22T02:15:48.964Z,100234.69
2023-03-22T02:19:19.623Z,100233.22
2023-03-22T02:22:01.346Z,100229.84
2023-03-22T02:25:18.705Z,100231.63
2023-03-22T02:27:54.016Z,100220.16
2023-03-22T02:30:48.514Z,100228.97
2023-03-22T02:33:50.482Z,100230.97
2023-03-22T02:36:33.132Z,100224.06
2023-03-22T02:39:17.269Z,100217.81
2023-03-22T02:42:05.464Z,100227.69
2023-03-22T02:44:45.424Z,100218.03
2023-03-22T02:47:20.682Z,100216.84
2023-03-22T02:49:55.900Z,100210.91
2023-03-22T02:52:43.235Z,100217.25
2023-03-22T02:55:15.817Z,100204.22
2023-03-22T02:57:54.397Z,100210.91
2023-03-22T03:00:21.482Z,100210.47
2023-03-22T03:02:57.605Z,100208.25
2023-03-22T03:05:25.361Z,100212.06
2023-03-22T03:07:57.736Z,100210.91
2023-03-22T03:10:26.065Z,100198.78
2023-03-22T03:12:53.309Z,100200.50
2023-03-22T03:15:21.672Z,100197.19
2023-03-22T03:18:06.416Z,100197.19
2023-03-22T03:20:39.961Z,100195.59
2023-03-22T03:23:31.401Z,100187.75
2023-03-22T03:26:14.592Z,100188.19
2023-03-22T03:29:05.775Z,100198.59
2023-03-22T03:31:50.918Z,100190.31
2023-03-22T03:34:33.029Z,100204.97
2023-03-22T03:37:08.408Z,100204.00
2023-03-22T03:39:39.524Z,100219.16
2023-03-22T03:42:07.585Z,100218.47
2023-03-22T03:44:36.149Z,100222.63
2023-03-22T03:47:05.704Z,100226.25
2023-03-22T03:49:32.528Z,100217.44
2023-03-22T03:51:59.920Z,100217.50
2023-03-22T03:54:26.826Z,100222.94
2023-03-22T03:56:55.913Z,100221.91
2023-03-22T03:59:23.288Z,100213.84
2023-03-22T04:01:52.952Z,100220.97
2023-03-22T04:04:29.634Z,100217.31
2023-03-22T04:07:03.715Z,100206.81
2023-03-22T04:09:34.027Z,100211.19
2023-03-22T04:12:10.117Z,100207.00
2023-03-22T04:14:36.931Z,100207.78
2023-03-22T04:17:10.740Z,100213.94
2023-03-22T04:19:37.501Z,100211.94
2023-03-22T04:22:23.909Z,100199.72
2023-03-22T04:24:50.850Z,100209.91
2023-03-22T04:27:22.115Z,100211.06
2023-03-22T04:30:12.500Z,100206.63
2023-03-22T04:32:58.116Z,100205.03
2023-03-22T04:35:38.107Z,100216.50
2023-03-22T04:38:05.079Z,100209.47
2023-03-22T04:40:36.697Z,100204.94
2023-03-22T04:43:18.985Z,100206.81
2023-03-22T04:45:54.800Z,100208.88
2023-03-22T04:48:28.071Z,100204.09
2023-03-22T04:50:56.475Z,100206.47
2023-03-22T04:53:27.662Z,100199.13
2023-03-22T04:55:59.049Z,100197.97
2023-03-22T04:58:27.635Z,100192.44
2023-03-22T05:00:54.367Z,100195.84
2023-03-22T05:03:22.454Z,100199.53
2023-03-22T05:05:58.857Z,100189.78
2023-03-22T05:08:34.363Z,100193.19
2023-03-22T05:11:08.631Z,100193.94
2023-03-22T05:13:37.592Z,100188.53
2023-03-22T05:16:05.805Z,100180.13
2023-03-22T05:18:45.675Z,100181.41
2023-03-22T05:21:15.610Z,100183.63
2023-03-22T05:23:43.711Z,100175.47
2023-03-22T05:26:16.174Z,100178.84
2023-03-22T05:28:44.172Z,100187.88
2023-03-22T05:31:18.181Z,100179.72
2023-03-22T05:33:54.566Z,100184.69
2023-03-22T05:36:24.294Z,100173.34
2023-03-22T05:39:16.140Z,100175.56
2023-03-22T05:41:44.373Z,100177.69
2023-03-22T05:44:11.301Z,100180.34
2023-03-22T05:46:43.482Z,100176.81
2023-03-22T05:49:36.552Z,100179.59
2023-03-22T05:52:04.535Z,100172.38
2023-03-22T05:54:45.709Z,100167.69
2023-03-22T05:57:12.380Z,100170.56
2023-03-22T05:59:39.489Z,100171.22
2023-03-22T06:02:09.011Z,100160.81
2023-03-22T06:04:35.883Z,100164.31
2023-03-22T06:07:09.000Z,100161.97
2023-03-22T06:09:45.646Z,100170.16
2023-03-22T06:12:17.379Z,100172.16
2023-03-22T06:14:49.077Z,100175.97
2023-03-22T06:17:26.619Z,100177.78
2023-03-22T06:19:54.969Z,100169.06
2023-03-22T06:22:22.130Z,100174.81
2023-03-22T06:24:49.420Z,100173.56
2023-03-22T06:27:22.172Z,100170.97
2023-03-22T06:29:51.040Z,100173.75
2023-03-22T06:32:26.742Z,100172.69
2023-03-22T06:34:54.842Z,100175.22
2023-03-22T06:37:23.696Z,100172.69
2023-03-22T06:39:51.949Z,100167.19
2023-03-22T06:42:20.453Z,100177.19
2023-03-22T06:44:54.771Z,100170.69
2023-03-22T06:47:26.530Z,100182.78
2023-03-22T06:50:26.114Z,100180.34
2023-03-22T06:53:15.911Z,100181.22
2023-03-22T06:55:43.480Z,100177.78
2023-03-22T06:58:13.986Z,100178.66
2023-03-22T07:00:41.697Z,100181.94
2023-03-22T07:03:08.828Z,100182.91
2023-03-22T07:06:00.899Z,100187.34
2023-03-22T07:08:30.651Z,100184.81
2023-03-22T07:10:57.927Z,100181.63
2023-03-22T07:13:24.874Z,100186.19
2023-03-22T07:15:59.519Z,100190.31
2023-03-22T07:18:36.013Z,100183.34
2023-03-22T07:21:03.024Z,100185.66
2023-03-22T07:23:30.178Z,100184.81
2023-03-22T07:26:03.103Z,100180.88
2023-03-22T07:28:35.855Z,100175.56
2023-03-22T07:31:05.092Z,100183.00
2023-03-22T07:33:42.001Z,100179.81
2023-03-22T07:36:10.428Z,100190.13
2023-03-22T07:38:37.630Z,100179.41
2023-03-22T07:41:08.810Z,100179.41
2023-03-22T07:43:58.261Z,100171.84
2023-03-22T07:46:29.799Z,100161.00
2023-03-22T07:49:18.042Z,100163.22
2023-03-22T07:52:02.904Z,100153.31
2023-03-22T07:54:33.946Z,100158.53
2023-03-22T07:57:01.871Z,100144.81
2023-03-22T07:59:28.900Z,100149.06
2023-03-22T08:01:55.782Z,100156.91
2023-03-22T08:04:30.902Z,100153.84
2023-03-22T08:07:05.966Z,100151.81
2023-03-22T08:09:33.423Z,100146.25
2023-03-22T08:12:01.032Z,100142.41
2023-03-22T08:14:36.245Z,100145.59
2023-03-22T08:17:06.193Z,100149.41
2023-03-22T08:19:34.513Z,100141.31
2023-03-22T08:22:02.204Z,100139.06
2023-03-22T08:24:47.898Z,100133.16
2023-03-22T08:27:25.015Z,100138.97
2023-03-22T08:29:51.935Z,100144.09
2023-03-22T08:32:19.200Z,100137.69
2023-03-22T08:34:46.040Z,100131.06
2023-03-22T08:37:16.231Z,100135.63
2023-03-22T08:39:44.953Z,100137.41
2023-03-22T08:42:27.829Z,100137.78
2023-03-22T08:44:54.773Z,100134.66
2023-03-22T08:47:24.404Z,100132.00
2023-03-22T08:49:55.248Z,100136.75
2023-03-22T08:52:28.688Z,100136.28
2023-03-22T08:55:06.429Z,100129.06
2023-03-22T08:57:39.174Z,100119.00
2023-03-22T09:00:42.255Z,100114.09
2023-03-22T09:03:20.781Z,100106.34
2023-03-22T09:05:48.827Z,100114.09
2023-03-22T09:08:19.808Z,100115.78
2023-03-22T09:10:53.829Z,100101.28
2023-03-22T09:13:22.435Z,100112.41
2023-03-22T09:16:07.042Z,100100.56
2023-03-22T09:18:40.274Z,100097.63
2023-03-22T09:21:14.489Z,100093.28
2023-03-22T09:23:50.522Z,100083.97
2023-03-22T09:26:20.326Z,100089.41
2023-03-22T09:28:52.776Z,100098.59
2023-03-22T09:31:20.699Z,100093.53
2023-03-22T09:33:51.823Z,100088.44
2023-03-22T09:36:19.966Z,100090.22
2023-03-22T09:38:48.198Z,100102.72
2023-03-22T09:41:19.379Z,100094.47
2023-03-22T09:43:49.956Z,100096.16
2023-03-22T09:46:37.134Z,100091.44
2023-03-22T09:49:07.516Z,100089.47
2023-03-22T09:51:42.881Z,100100.22
2023-03-22T09:54:15.081Z,100088.38
2023-03-22T09:56:46.439Z,100078.88
2023-03-22T09:59:27.263Z,100081.75
2023-03-22T10:01:57.407Z,100083.97
2023-03-22T10:04:49.546Z,100072.94
2023-03-22T10:07:28.349Z,100069.41
2023-03-22T10:10:10.276Z,100072.28
2023-03-22T10:13:02.139Z,100070.59
2023-03-22T10:15:38.889Z,100063.44
2023-03-22T10:18:09.228Z,100061.88
2023-03-22T10:20:44.538Z,100066.69
2023-03-22T10:23:37.587Z,100059.03
2023-03-22T10:26:05.311Z,100049.47
2023-03-22T10:28:37.954Z,100048.75
2023-03-22T10:31:05.997Z,100048.50
2023-03-22T10:33:50.184Z,100045.41
2023-03-22T10:36:19.246Z,100036.31
2023-03-22T10:38:48.842Z,100027.13
2023-03-22T10:41:20.290Z,100034.16
2023-03-22T10:43:51.959Z,100021.66
2023-03-22T10:46:27.062Z,100014.38
2023-03-22T10:48:58.319Z,100003.09
2023-03-22T10:51:32.752Z,100003.97
2023-03-22T10:54:01.642Z,99996.63
2023-03-22T10:56:28.489Z,99991.59
2023-03-22T10:58:56.198Z,99997.09
2023-03-22T11:01:36.910Z,99984.28
2023-03-22T11:04:03.617Z,99991.16
2023-03-22T11:06:34.916Z,99993.34
2023-03-22T11:09:14.484Z,99998.50
2023-03-22T11:11:54.754Z,99994.56
2023-03-22T11:14:32.785Z,99998.50
2023-03-22T11:17:01.679Z,99997.09
2023-03-22T11:19:39.215Z,99976.41
2023-03-22T11:22:23.004Z,99979.78
2023-03-22T11:24:51.188Z,99975.56
2023-03-22T11:27:31.766Z,99971.19
2023-03-22T11:30:08.866Z,99979.78
2023-03-22T11:32:38.803Z,99966.59
2023-03-22T11:35:13.107Z,99977.88
2023-03-22T11:37:54.112Z,99978.00
2023-03-22T11:40:23.032Z,99972.81
2023-03-22T11:42:54.026Z,99970.28
2023-03-22T11:45:32.742Z,99965.06
2023-03-22T11:48:08.315Z,99960.84
2023-03-22T11:50:38.791Z,99965.66
2023-03-22T11:53:08.957Z,99954.44
2023-03-22T11:55:36.459Z,99951.31
2023-03-22T11:58:04.683Z,99951.44
2023-03-22T12:00:33.926Z,99947.78
2023-03-22T12:03:05.101Z,99958.94
2023-03-22T12:05:33.962Z,99959.63
2023-03-22T12:08:04.852Z,99951.44
2023-03-22T12:10:36.819Z,99937.22
2023-03-22T12:13:07.853Z,99924.59
2023-03-22T12:15:37.395Z,99935.28
2023-03-22T12:18:13.825Z,99948.53
2023-03-22T12:20:45.040Z,99936.38
2023-03-22T12:23:15.568Z,99914.84
2023-03-22T12:25:46.890Z,99939.19
2023-03-22T12:28:17.729Z,99915.81
2023-03-22T12:30:47.543Z,99909.84
2023-03-22T12:33:33.300Z,99897.84
2023-03-22T12:36:05.521Z,99901.72
2023-03-22T12:38:40.732Z,99890.28
2023-03-22T12:41:11.732Z,99887.16
2023-03-22T12:43:53.706Z,99881.91
2023-03-22T12:46:35.718Z,99877.59
2023-03-22T12:49:32.573Z,99881.41
2023-03-22T12:52:16.183Z,99868.44
2023-03-22T12:54:43.459Z,99884.00
2023-03-22T12:57:14.291Z,99880.97
2023-03-22T12:59:42.903Z,99881.25
2023-03-22T13:02:17.260Z,99873.03
2023-03-22T13:04:43.835Z,99881.16
2023-03-22T13:07:13.738Z,99868.47
2023-03-22T13:09:53.621Z,99885.53
2023-03-22T13:12:20.534Z,99879.09
2023-03-22T13:14:50.486Z,99872.75
2023-03-22T13:17:23.291Z,99870.00
2023-03-22T13:20:11.805Z,99877.72
2023-03-22T13:22:40.801Z,99869.78
2023-03-22T13:25:13.745Z,99865.56
2023-03-22T13:27:46.459Z,99870.22
2023-03-22T13:30:17.026Z,99854.81
2023-03-22T13:33:16.614Z,99850.22
2023-03-22T13:35:48.761Z,99889.22
2023-03-22T13:38:31.406Z,99858.81
2023-03-22T13:41:09.656Z,99870.06
2023-03-22T13:43:50.781Z,99873.81
2023-03-22T13:46:23.580Z,99872.31
2023-03-22T13:48:53.333Z,99905.31
2023-03-22T13:51:23.041Z,99847.97
2023-03-22T13:54:02.076Z,99857.31
2023-03-22T13:56:42.430Z,99852.41
2023-03-22T13:59:43.113Z,99866.47
2023-03-22T14:02:22.420Z,99866.06
2023-03-22T14:04:53.284Z,99847.34
2023-03-22T14:07:30.436Z,99839.09
2023-03-22T14:10:03.509Z,99848.53
2023-03-22T14:12:48.278Z,99820.22
2023-03-22T14:15:18.383Z,99862.63
2023-03-22T14:17:52.873Z,99843.94
2023-03-22T14:20:22.532Z,99841.97
2023-03-22T14:54:06.185Z,99829.91
2023-03-22T14:56:34.740Z,99840.81
2023-03-22T14:59:03.648Z,99832.00
2023-03-22T15:01:35.021Z,99826.22
2023-03-22T15:04:05.882Z,99821.53
2023-03-22T15:06:55.688Z,99828.47
2023-03-22T15:09:37.976Z,99818.59
2023-03-22T15:12:26.311Z,99812.09
2023-03-22T15:14:56.141Z,99799.69
2023-03-22T15:17:33.681Z,99816.63
2023-03-22T15:20:28.588Z,99793.88
2023-03-22T15:23:18.451Z,99803.97
2023-03-22T15:26:07.486Z,99801.88
2023-03-22T15:28:44.314Z,99805.78
2023-03-22T15:31:25.454Z,99809.59
2023-03-22T15:33:54.138Z,99798.44
2023-03-22T15:36:22.315Z,99806.94
2023-03-22T15:38:49.710Z,99795.81
2023-03-22T15:41:24.083Z,99784.81
2023-03-22T15:44:23.247Z,99791.22
2023-03-22T15:46:53.259Z,99810.69
2023-03-22T15:49:36.635Z,99786.56
2023-03-22T15:52:09.758Z,99792.31
2023-03-22T15:54:41.892Z,99797.56
2023-03-22T15:57:16.203Z,99808.59
2023-03-22T15:59:52.390Z,99828.66
2023-03-22T16:02:31.674Z,99828.81
2023-03-22T16:05:03.335Z,99808.31
2023-03-22T16:07:30.907Z,99816.34
2023-03-22T16:09:58.838Z,99801.88
2023-03-22T16:12:26.146Z,99821.44
2023-03-22T16:14:53.469Z,99811.06
2023-03-22T16:17:25.306Z,99819.13
2023-03-22T16:19:52.725Z,99812.47
2023-03-22T16:22:21.131Z,99851.09
2023-03-22T16:24:50.493Z,99820.50
2023-03-22T16:27:20.531Z,99820.66
2023-03-22T16:29:48.172Z,99825.50
2023-03-22T16:32:26.606Z,99821.28
2023-03-22T16:34:53.431Z,99832.66
2023-03-22T16:37:24.553Z,99832.25
2023-03-22T16:39:52.305Z,99832.56
2023-03-22T16:42:21.197Z,99830.78
2023-03-22T16:44:54.449Z,99832.91
2023-03-22T16:47:25.830Z,99841.25
2023-03-22T16:49:53.857Z,99841.81
2023-03-22T16:52:23.230Z,99844.91
2023-03-22T16:54:52.391Z,99844.91
2023-03-22T16:57:21.510Z,99848.31
2023-03-22T16:59:48.445Z,99851.28
2023-03-22T17:02:21.239Z,99868.47
2023-03-22T17:04:48.134Z,99884.13
2023-03-22T17:07:25.214Z,99853.00
2023-03-22T17:09:55.233Z,99877.94
2023-03-22T17:12:46.703Z,99868.63
2023-03-22T17:15:40.086Z,99887.50
2023-03-22T17:21:30.140Z,99876.28
2023-03-22T17:25:41.208Z,99872.66
2023-03-22T17:28:39.976Z,99872.94
2023-03-22T17:32:18.213Z,99881.41
2023-03-22T17:34:51.584Z,99882.38
2023-03-22T17:44:10.759Z,99882.38
2023-03-22T17:49:46.728Z,99884.31
2023-03-22T17:52:15.827Z,99889.97
2023-03-22T17:58:31.429Z,99864.63
2023-03-22T18:01:12.036Z,99874.19
2023-03-22T18:03:48.120Z,99867.84
2023-03-22T18:06:18.319Z,99888.56
2023-03-22T18:09:05.054Z,99882.34
2023-03-22T18:19:04.566Z,99891.22
2023-03-22T18:24:42.873Z,99890.78
2023-03-22T18:48:51.976Z,99910.63
2023-03-22T18:51:42.076Z,99899.09
2023-03-22T18:54:18.256Z,99912.31
2023-03-22T18:56:51.675Z,99906.25
2023-03-22T18:59:31.990Z,99912.03
2023-03-22T19:02:18.182Z,99911.84
2023-03-22T19:04:48.891Z,99922.88
2023-03-22T19:07:23.271Z,99911.03
2023-03-22T19:10:05.440Z,99911.88
2023-03-22T19:12:35.371Z,99918.50
2023-03-22T19:15:20.809Z,99907.81
2023-03-22T19:17:50.884Z,99905.97
2023-03-22T19:20:17.980Z,99898.94
2023-03-22T19:22:50.283Z,99901.50
2023-03-22T19:25:17.944Z,99896.16
2023-03-22T19:27:45.450Z,99892.59
2023-03-22T19:30:13.934Z,99900.34
2023-03-22T19:32:50.804Z,99889.94
2023-03-22T19:35:33.710Z,99895.28
2023-03-22T19:38:01.474Z,99890.09
2023-03-22T19:42:58.075Z,99893.88
2023-03-22T19:45:25.820Z,99883.47
2023-03-22T19:48:03.808Z,99882.63
2023-03-22T19:50:31.415Z,99877.69
2023-03-22T19:53:09.300Z,99880.38
2023-03-22T19:55:49.129Z,99875.59
2023-03-22T19:58:25.491Z,99880.22
2023-03-22T20:00:53.402Z,99869.25
2023-03-22T20:09:33.681Z,99871.22
2023-03-22T20:12:05.196Z,99867.56
2023-03-22T20:14:34.491Z,99871.94
2023-03-22T20:17:06.787Z,99870.22
2023-03-22T20:19:36.791Z,99878.53
2023-03-22T20:22:06.503Z,99869.41
2023-03-22T20:24:33.360Z,99861.63
2023-03-22T20:27:03.305Z,99871.50
2023-03-22T20:29:30.111Z,99869.78
2023-03-22T20:31:57.109Z,99869.66
2023-03-22T20:34:25.109Z,99865.31
2023-03-22T20:36:55.532Z,99855.75
2023-03-22T20:39:22.906Z,99861.94
2023-03-22T20:41:49.678Z,99855.75
2023-03-22T20:44:16.591Z,99852.06
2023-03-22T20:46:45.634Z,99846.88
2023-03-22T20:49:15.097Z,99831.72
2023-03-22T20:51:41.967Z,99831.72
2023-03-22T20:54:09.446Z,99835.50
2023-03-22T20:56:36.876Z,99825.94
2023-03-22T20:59:05.245Z,99830.31
2023-03-22T21:01:32.443Z,99826.78
2023-03-22T21:04:00.329Z,99830.56
2023-03-22T21:06:30.143Z,99835.06
2023-03-22T21:09:06.409Z,99828.19
2023-03-22T21:11:39.388Z,99826.06
2023-03-22T21:14:06.737Z,99832.13
2023-03-22T21:16:35.446Z,99833.81
2023-03-22T21:19:02.739Z,99830.84
2023-03-22T21:21:30.286Z,99830.41
2023-03-22T21:23:59.156Z,99835.63
2023-03-22T21:26:28.391Z,99828.19
2023-03-22T21:28:56.089Z,99827.59
2023-03-22T21:31:25.403Z,99831.25
2023-03-22T21:33:56.095Z,99829.41
2023-03-22T21:36:24.249Z,99828.56
2023-03-22T21:38:56.560Z,99826.88
2023-03-22T21:41:28.096Z,99824.22
2023-03-22T21:43:55.597Z,99825.19
2023-03-22T21:46:32.589Z,99823.53
2023-03-22T21:49:02.467Z,99818.19
2023-03-22T21:51:29.582Z,99809.31
2023-03-22T21:53:57.349Z,99812.84
2023-03-22T21:56:24.724Z,99813.81
2023-03-22T21:58:55.195Z,99815.66
2023-03-22T22:01:23.024Z,99824.34
2023-03-22T22:03:57.163Z,99813.09
2023-03-22T22:06:29.475Z,99815.78
2023-03-22T22:09:00.795Z,99812.41
2023-03-22T22:11:30.527Z,99811.69
2023-03-22T22:14:00.241Z,99810.56
2023-03-22T22:16:27.534Z,99802.56
2023-03-22T22:18:55.993Z,99797.09
2023-03-22T22:21:32.734Z,99792.47
2023-03-22T22:24:00.661Z,99792.31
2023-03-22T22:26:30.640Z,99786.69
2023-03-22T22:28:58.330Z,99782.75
2023-03-22T22:31:30.389Z,99774.75
2023-03-22T22:34:01.705Z,99783.72
2023-03-22T22:36:38.403Z,99781.19
2023-03-22T22:39:13.967Z,99774.31
2023-03-22T22:41:54.140Z,99778.53
2023-03-22T22:44:26.195Z,99773.75
2023-03-22T22:46:55.573Z,99770.78
2023-03-22T22:49:22.815Z,99772.75
2023-03-22T22:51:52.415Z,99772.91
2023-03-22T22:54:22.151Z,99775.44
2023-03-22T22:56:49.639Z,99780.91
2023-03-22T22:59:16.782Z,99777.38
2023-03-22T23:01:48.797Z,99778.94
2023-03-22T23:04:28.309Z,99773.88
2023-03-22T23:06:57.542Z,99775.97
2023-03-22T23:09:33.294Z,99770.63
2023-03-22T23:12:02.779Z,99767.28
2023-03-22T23:14:30.845Z,99751.25
2023-03-22T23:17:00.240Z,99748.75
2023-03-22T23:19:29.724Z,99752.53
2023-03-22T23:22:03.615Z,99747.44
2023-03-22T23:24:34.704Z,99747.25
2023-03-22T23:27:02.273Z,99748.38
2023-03-22T23:29:29.515Z,99756.38
2023-03-22T23:31:56.903Z,99753.13
2023-03-22T23:34:24.238Z,99751.56
2023-03-22T23:36:51.416Z,99750.59
2023-03-22T23:39:20.796Z,99747.38
2023-03-22T23:41:48.866Z,99742.72
2023-03-22T23:44:17.145Z,99739.22
2023-03-22T23:46:46.254Z,99743.84
2023-03-22T23:49:13.565Z,99736.56
2023-03-22T23:51:43.499Z,99732.34
2023-03-22T23:54:12.746Z,99728.97
2023-03-22T23:56:39.937Z,99721.25
2023-03-22T23:59:12.363Z,99726.13
